Terminal Aerodrome Forecast
Issued by NWS Topeka, KS

Home | Current Version | Previous Version | Text Only | Print | Product List | Glossary Off
Versions: 1 2 3 4 5 6 7 8 9 10 11 12 13 14 15 16 17 18 19 20 21

408
FTUS43 KTOP 251130
TAFTOP
TAF
KTOP 251130Z 2512/2612 33007KT 6SM -RA SCT025 OVC050
     FM251400 35009KT 5SM -RA OVC015
     FM251600 36011KT 3SM -RA OVC008
     FM252200 35007KT 5SM -RA OVC020
     FM260100 32003KT P6SM SCT030 BKN050=

USA.gov is the U.S. government's official web portal to all federal, state and local government web resources and services.